This is the latest recevied weather packets stored in our database for station/object W1MWS-13. If no packets are shown the sender has not sent any weather packets the latest 10 day(s).
| Time | Temp. | Humidity | Pressure | Rain* | Wind** | Luminosity | Snow |
|---|---|---|---|---|---|---|---|
| 1777299505 | 19.44° C | 47% | 1025.3 hPa | 0 mm | - | - | - |
| 1777298609 | 18.89° C | 47% | 1025.3 hPa | 0 mm | - | - | - |
| 1777294406 | 15° C | 58% | 1025.5 hPa | 0 mm | - | - | - |
| 1777293806 | 15° C | 58% | 1025.5 hPa | 0 mm | - | - | - |
| 1777291406 | 11.11° C | 75% | 1025.5 hPa | 0 mm | - | - | - |
| 1777290518 | 9.44° C | 82% | 1025.5 hPa | 0 mm | - | - | - |
| 1777289897 | 7.78° C | 86% | 1025.4 hPa | 0 mm | - | - | - |
| 1777288098 | 5.56° C | 96% | 1025.1 hPa | 0 mm | - | - | - |
| 1777287498 | 5° C | 97% | 1025.1 hPa | 0 mm | - | - | - |
| 1777284807 | 2.22° C | 99% | 1024.5 hPa | 0 mm | - | - | - |
| 1777284195 | 1.67° C | 99% | 1024.3 hPa | 0 mm | - | - | - |
| 1777283007 | 2.22° C | 99% | 1024 hPa | 0 mm | - | - | - |
| 1777281808 | 2.22° C | 99% | 1023.8 hPa | 0 mm | - | - | - |
| 1777280622 | 2.22° C | 99% | 1023.7 hPa | 0 mm | - | - | - |
| 1777280311 | 2.22° C | 99% | 1023.7 hPa | 0 mm | - | - | - |
| 1777278804 | - | - | 1023.3 hPa | 0 mm | - | - | - |
| 1777277012 | 2.78° C | 99% | 1023.2 hPa | 0 mm | - | - | - |
| 1777276432 | 2.78° C | 99% | - | 0 mm | - | - | - |
| 1777275212 | 2.78° C | 99% | 1022.9 hPa | 0 mm | - | - | - |
| 1777274923 | 2.78° C | 99% | 1022.8 hPa | 0 mm | - | - | - |
| 1777269830 | 3.89° C | 98% | 1022.6 hPa | 0 mm | - | - | - |
| 1777268610 | 3.89° C | 97% | 1022.8 hPa | 0 mm | - | - | - |
| 1777267126 | 4.44° C | 93% | 1023 hPa | 0 mm | - | - | - |
| 1777263495 | 5.56° C | 86% | 1022.8 hPa | 0 mm | - | - | - |
| 1777263204 | 5.56° C | 86% | 1022.8 hPa | 0 mm | - | - | - |
* Rain latest hour (hover to see other rain measurements)
** Current wind speed in m/s (hover to see current wind gust speed)